sensor_id;sensor_type;location;lat;lon;timestamp;P1;durP1;ratioP1;P2;durP2;ratioP2
5549;SDS011;2798;42.716;23.256;2024-01-15T00:01:42;48.53;;;24.30;;
5549;SDS011;2798;42.716;23.256;2024-01-15T00:04:09;43.97;;;22.83;;
5549;SDS011;2798;42.716;23.256;2024-01-15T00:06:34;40.40;;;23.57;;
5549;SDS011;2798;42.716;23.256;2024-01-15T00:09:00;39.10;;;22.27;;
5549;SDS011;2798;42.716;23.256;2024-01-15T00:11:25;40.07;;;23.00;;
5549;SDS011;2798;42.716;23.256;2024-01-15T00:13:51;38.80;;;22.23;;
5549;SDS011;2798;42.716;23.256;2024-01-15T00:16:17;39.57;;;22.40;;
5549;SDS011;2798;42.716;23.256;2024-01-15T00:18:43;41.03;;;22.87;;
5549;SDS011;2798;42.716;23.256;2024-01-15T00:21:08;37.60;;;21.63;;
5549;SDS011;2798;42.716;23.256;2024-01-15T00:23:34;45.03;;;23.57;;
5549;SDS011;2798;42.716;23.256;2024-01-15T00:26:00;41.20;;;22.80;;
5549;SDS011;2798;42.716;23.256;2024-01-15T00:28:25;37.37;;;21.70;;
5549;SDS011;2798;42.716;23.256;2024-01-15T00:30:51;35.63;;;20.87;;
5549;SDS011;2798;42.716;23.256;2024-01-15T00:33:16;38.57;;;21.87;;
5549;SDS011;2798;42.716;23.256;2024-01-15T00:35:42;34.50;;;19.80;;
5549;SDS011;2798;42.716;23.256;2024-01-15T00:38:07;34.07;;;20.20;;
5549;SDS011;2798;42.716;23.256;2024-01-15T00:40:33;39.90;;;22.70;;
5549;SDS011;2798;42.716;23.256;2024-01-15T00:42:58;34.17;;;20.83;;
5549;SDS011;2798;42.716;23.256;2024-01-15T00:45:24;39.50;;;20.73;;
5549;SDS011;2798;42.716;23.256;2024-01-15T00:47:49;37.47;;;20.80;;
5549;SDS011;2798;42.716;23.256;2024-01-15T00:50:15;35.83;;;19.50;;
5549;SDS011;2798;42.716;23.256;2024-01-15T00:52:40;34.07;;;19.97;;
5549;SDS011;2798;42.716;23.256;2024-01-15T00:55:06;37.43;;;20.63;;
5549;SDS011;2798;42.716;23.256;2024-01-15T00:57:32;36.60;;;19.90;;
5549;SDS011;2798;42.716;23.256;2024-01-15T00:59:58;35.53;;;20.40;;
5549;SDS011;2798;42.716;23.256;2024-01-15T01:02:23;38.30;;;21.20;;
5549;SDS011;2798;42.716;23.256;2024-01-15T01:04:49;31.63;;;19.07;;
5549;SDS011;2798;42.716;23.256;2024-01-15T01:07:14;33.17;;;19.83;;
5549;SDS011;2798;42.716;23.256;2024-01-15T01:09:40;38.80;;;21.00;;
5549;SDS011;2798;42.716;23.256;2024-01-15T01:12:05;35.50;;;19.67;;
5549;SDS011;2798;42.716;23.256;2024-01-15T01:14:31;34.60;;;20.60;;
5549;SDS011;2798;42.716;23.256;2024-01-15T01:16:57;35.67;;;19.90;;
5549;SDS011;2798;42.716;23.256;2024-01-15T01:19:23;36.57;;;21.60;;
5549;SDS011;2798;42.716;23.256;2024-01-15T01:21:50;31.20;;;18.17;;
5549;SDS011;2798;42.716;23.256;2024-01-15T01:24:16;32.33;;;17.77;;
5549;SDS011;2798;42.716;23.256;2024-01-15T01:26:41;29.50;;;17.17;;
5549;SDS011;2798;42.716;23.256;2024-01-15T01:29:07;31.13;;;19.00;;
5549;SDS011;2798;42.716;23.256;2024-01-15T01:31:32;32.23;;;20.97;;
5549;SDS011;2798;42.716;23.256;2024-01-15T01:33:58;29.77;;;18.33;;
5549;SDS011;2798;42.716;23.256;2024-01-15T01:36:24;33.70;;;19.10;;
5549;SDS011;2798;42.716;23.256;2024-01-15T01:38:49;35.43;;;20.90;;
5549;SDS011;2798;42.716;23.256;2024-01-15T01:41:14;40.33;;;22.73;;
5549;SDS011;2798;42.716;23.256;2024-01-15T01:43:40;35.53;;;19.33;;
5549;SDS011;2798;42.716;23.256;2024-01-15T01:46:06;32.80;;;19.00;;
5549;SDS011;2798;42.716;23.256;2024-01-15T01:48:32;30.97;;;19.03;;
5549;SDS011;2798;42.716;23.256;2024-01-15T01:50:59;33.77;;;19.67;;
5549;SDS011;2798;42.716;23.256;2024-01-15T01:53:27;31.10;;;19.67;;
5549;SDS011;2798;42.716;23.256;2024-01-15T01:55:54;39.43;;;21.60;;
5549;SDS011;2798;42.716;23.256;2024-01-15T01:58:22;31.13;;;18.27;;
5549;SDS011;2798;42.716;23.256;2024-01-15T02:00:47;36.00;;;19.73;;
5549;SDS011;2798;42.716;23.256;2024-01-15T02:03:14;36.03;;;19.60;;
5549;SDS011;2798;42.716;23.256;2024-01-15T02:05:40;33.80;;;20.20;;
5549;SDS011;2798;42.716;23.256;2024-01-15T02:08:08;35.53;;;19.43;;
5549;SDS011;2798;42.716;23.256;2024-01-15T02:10:33;33.30;;;18.37;;
5549;SDS011;2798;42.716;23.256;2024-01-15T02:12:59;34.27;;;19.77;;
5549;SDS011;2798;42.716;23.256;2024-01-15T02:15:24;30.37;;;18.17;;
5549;SDS011;2798;42.716;23.256;2024-01-15T02:20:21;29.00;;;17.30;;
5549;SDS011;2798;42.716;23.256;2024-01-15T02:22:47;26.03;;;18.30;;
5549;SDS011;2798;42.716;23.256;2024-01-15T02:25:12;31.57;;;19.17;;
5549;SDS011;2798;42.716;23.256;2024-01-15T02:27:38;31.70;;;18.43;;
5549;SDS011;2798;42.716;23.256;2024-01-15T02:30:03;30.77;;;18.00;;
5549;SDS011;2798;42.716;23.256;2024-01-15T02:32:31;31.73;;;18.00;;
5549;SDS011;2798;42.716;23.256;2024-01-15T02:34:56;30.73;;;19.03;;
5549;SDS011;2798;42.716;23.256;2024-01-15T02:37:22;28.80;;;18.00;;
5549;SDS011;2798;42.716;23.256;2024-01-15T02:39:47;30.23;;;18.77;;
5549;SDS011;2798;42.716;23.256;2024-01-15T02:42:13;36.30;;;21.17;;
5549;SDS011;2798;42.716;23.256;2024-01-15T02:44:38;32.90;;;19.73;;
5549;SDS011;2798;42.716;23.256;2024-01-15T02:47:04;32.23;;;19.60;;
5549;SDS011;2798;42.716;23.256;2024-01-15T02:49:30;39.63;;;21.97;;
5549;SDS011;2798;42.716;23.256;2024-01-15T02:51:57;33.07;;;19.93;;
5549;SDS011;2798;42.716;23.256;2024-01-15T02:54:22;34.87;;;20.87;;
5549;SDS011;2798;42.716;23.256;2024-01-15T02:56:48;35.80;;;21.13;;
5549;SDS011;2798;42.716;23.256;2024-01-15T02:59:13;33.10;;;21.40;;
5549;SDS011;2798;42.716;23.256;2024-01-15T03:01:39;31.53;;;19.83;;
5549;SDS011;2798;42.716;23.256;2024-01-15T03:04:04;35.07;;;21.80;;
5549;SDS011;2798;42.716;23.256;2024-01-15T03:06:30;37.37;;;22.63;;
5549;SDS011;2798;42.716;23.256;2024-01-15T03:08:55;33.77;;;19.93;;
5549;SDS011;2798;42.716;23.256;2024-01-15T03:11:21;35.67;;;21.40;;
5549;SDS011;2798;42.716;23.256;2024-01-15T03:13:46;35.30;;;22.20;;
5549;SDS011;2798;42.716;23.256;2024-01-15T03:16:12;32.33;;;20.73;;
5549;SDS011;2798;42.716;23.256;2024-01-15T03:18:37;37.67;;;21.60;;
5549;SDS011;2798;42.716;23.256;2024-01-15T03:21:03;41.03;;;25.90;;
5549;SDS011;2798;42.716;23.256;2024-01-15T03:23:30;37.57;;;22.37;;
5549;SDS011;2798;42.716;23.256;2024-01-15T03:25:55;40.53;;;25.30;;
5549;SDS011;2798;42.716;23.256;2024-01-15T03:28:21;44.23;;;23.83;;
5549;SDS011;2798;42.716;23.256;2024-01-15T03:30:46;43.90;;;25.77;;
5549;SDS011;2798;42.716;23.256;2024-01-15T03:33:11;51.87;;;25.90;;
5549;SDS011;2798;42.716;23.256;2024-01-15T03:35:37;51.50;;;29.77;;
5549;SDS011;2798;42.716;23.256;2024-01-15T03:38:02;50.23;;;29.10;;
5549;SDS011;2798;42.716;23.256;2024-01-15T03:40:28;50.03;;;29.60;;
5549;SDS011;2798;42.716;23.256;2024-01-15T03:42:54;46.70;;;28.20;;
5549;SDS011;2798;42.716;23.256;2024-01-15T03:45:19;52.83;;;30.87;;
5549;SDS011;2798;42.716;23.256;2024-01-15T03:47:45;60.50;;;35.00;;
5549;SDS011;2798;42.716;23.256;2024-01-15T03:50:10;56.83;;;32.93;;
5549;SDS011;2798;42.716;23.256;2024-01-15T03:52:36;58.40;;;35.43;;
5549;SDS011;2798;42.716;23.256;2024-01-15T03:55:01;63.93;;;36.83;;
5549;SDS011;2798;42.716;23.256;2024-01-15T03:57:27;63.77;;;38.33;;
5549;SDS011;2798;42.716;23.256;2024-01-15T03:59:52;60.57;;;37.37;;
5549;SDS011;2798;42.716;23.256;2024-01-15T04:02:18;77.63;;;44.67;;
5549;SDS011;2798;42.716;23.256;2024-01-15T04:04:43;75.03;;;41.10;;
5549;SDS011;2798;42.716;23.256;2024-01-15T04:07:09;76.90;;;45.20;;
5549;SDS011;2798;42.716;23.256;2024-01-15T04:09:35;72.90;;;43.33;;
5549;SDS011;2798;42.716;23.256;2024-01-15T04:12:00;69.47;;;40.53;;
5549;SDS011;2798;42.716;23.256;2024-01-15T04:14:26;68.17;;;41.50;;
5549;SDS011;2798;42.716;23.256;2024-01-15T04:16:51;76.00;;;42.37;;
5549;SDS011;2798;42.716;23.256;2024-01-15T04:19:17;74.23;;;43.00;;
5549;SDS011;2798;42.716;23.256;2024-01-15T04:21:42;67.47;;;39.40;;
5549;SDS011;2798;42.716;23.256;2024-01-15T04:24:08;65.57;;;38.47;;
5549;SDS011;2798;42.716;23.256;2024-01-15T04:26:33;70.53;;;40.07;;
5549;SDS011;2798;42.716;23.256;2024-01-15T04:28:59;64.17;;;37.53;;
5549;SDS011;2798;42.716;23.256;2024-01-15T04:31:24;69.20;;;40.20;;
5549;SDS011;2798;42.716;23.256;2024-01-15T04:33:51;59.07;;;37.13;;
5549;SDS011;2798;42.716;23.256;2024-01-15T04:36:18;66.50;;;39.00;;
5549;SDS011;2798;42.716;23.256;2024-01-15T04:38:43;63.10;;;38.33;;
5549;SDS011;2798;42.716;23.256;2024-01-15T04:41:15;69.50;;;39.47;;
5549;SDS011;2798;42.716;23.256;2024-01-15T04:43:41;67.63;;;39.50;;
5549;SDS011;2798;42.716;23.256;2024-01-15T04:46:07;62.90;;;39.00;;
5549;SDS011;2798;42.716;23.256;2024-01-15T04:48:33;62.67;;;36.30;;
5549;SDS011;2798;42.716;23.256;2024-01-15T04:50:58;71.17;;;38.60;;
5549;SDS011;2798;42.716;23.256;2024-01-15T04:53:24;65.13;;;39.50;;
5549;SDS011;2798;42.716;23.256;2024-01-15T04:55:50;65.30;;;39.30;;
5549;SDS011;2798;42.716;23.256;2024-01-15T04:58:15;63.07;;;39.20;;
5549;SDS011;2798;42.716;23.256;2024-01-15T05:00:41;64.80;;;37.20;;
5549;SDS011;2798;42.716;23.256;2024-01-15T05:03:06;60.37;;;37.07;;
5549;SDS011;2798;42.716;23.256;2024-01-15T05:05:32;71.53;;;40.80;;
5549;SDS011;2798;42.716;23.256;2024-01-15T05:07:57;62.57;;;36.60;;
5549;SDS011;2798;42.716;23.256;2024-01-15T05:10:23;62.33;;;37.10;;
5549;SDS011;2798;42.716;23.256;2024-01-15T05:12:48;73.93;;;41.50;;
5549;SDS011;2798;42.716;23.256;2024-01-15T05:15:13;63.87;;;38.27;;
5549;SDS011;2798;42.716;23.256;2024-01-15T05:17:39;59.40;;;35.60;;
5549;SDS011;2798;42.716;23.256;2024-01-15T05:20:05;63.67;;;36.00;;
5549;SDS011;2798;42.716;23.256;2024-01-15T05:22:31;65.37;;;36.57;;
5549;SDS011;2798;42.716;23.256;2024-01-15T05:24:56;59.70;;;36.20;;
5549;SDS011;2798;42.716;23.256;2024-01-15T05:27:22;62.57;;;37.13;;
5549;SDS011;2798;42.716;23.256;2024-01-15T05:29:47;60.07;;;35.63;;
5549;SDS011;2798;42.716;23.256;2024-01-15T05:32:13;59.53;;;35.47;;
5549;SDS011;2798;42.716;23.256;2024-01-15T05:34:38;56.43;;;34.17;;
5549;SDS011;2798;42.716;23.256;2024-01-15T05:37:04;59.93;;;33.40;;
5549;SDS011;2798;42.716;23.256;2024-01-15T05:39:29;54.40;;;33.50;;
5549;SDS011;2798;42.716;23.256;2024-01-15T05:41:55;60.67;;;33.27;;
5549;SDS011;2798;42.716;23.256;2024-01-15T05:44:20;63.60;;;35.93;;
5549;SDS011;2798;42.716;23.256;2024-01-15T05:46:46;60.53;;;33.43;;
5549;SDS011;2798;42.716;23.256;2024-01-15T05:49:11;59.60;;;34.93;;
5549;SDS011;2798;42.716;23.256;2024-01-15T05:51:37;57.33;;;34.03;;
5549;SDS011;2798;42.716;23.256;2024-01-15T05:54:02;58.23;;;34.93;;
5549;SDS011;2798;42.716;23.256;2024-01-15T05:56:28;56.73;;;34.60;;
5549;SDS011;2798;42.716;23.256;2024-01-15T05:58:53;58.77;;;32.77;;
5549;SDS011;2798;42.716;23.256;2024-01-15T06:01:19;54.37;;;31.50;;
5549;SDS011;2798;42.716;23.256;2024-01-15T06:03:44;55.50;;;31.53;;
5549;SDS011;2798;42.716;23.256;2024-01-15T06:06:10;54.50;;;31.17;;
5549;SDS011;2798;42.716;23.256;2024-01-15T06:08:35;48.73;;;29.53;;
5549;SDS011;2798;42.716;23.256;2024-01-15T06:11:00;55.40;;;31.57;;
5549;SDS011;2798;42.716;23.256;2024-01-15T06:13:29;49.90;;;28.70;;
5549;SDS011;2798;42.716;23.256;2024-01-15T06:15:55;61.40;;;34.13;;
5549;SDS011;2798;42.716;23.256;2024-01-15T06:18:20;52.43;;;32.23;;
5549;SDS011;2798;42.716;23.256;2024-01-15T06:20:45;48.70;;;30.30;;
5549;SDS011;2798;42.716;23.256;2024-01-15T06:23:11;54.40;;;31.70;;
5549;SDS011;2798;42.716;23.256;2024-01-15T06:25:36;58.23;;;30.60;;
5549;SDS011;2798;42.716;23.256;2024-01-15T06:28:02;51.20;;;30.77;;
5549;SDS011;2798;42.716;23.256;2024-01-15T06:30:29;58.30;;;33.20;;
5549;SDS011;2798;42.716;23.256;2024-01-15T06:32:55;58.90;;;31.30;;
5549;SDS011;2798;42.716;23.256;2024-01-15T06:35:20;54.40;;;33.40;;
5549;SDS011;2798;42.716;23.256;2024-01-15T06:37:46;52.30;;;31.83;;
5549;SDS011;2798;42.716;23.256;2024-01-15T06:40:11;47.00;;;30.10;;
5549;SDS011;2798;42.716;23.256;2024-01-15T06:42:37;51.60;;;31.10;;
5549;SDS011;2798;42.716;23.256;2024-01-15T06:45:03;53.83;;;31.10;;
5549;SDS011;2798;42.716;23.256;2024-01-15T06:47:28;52.60;;;32.20;;
5549;SDS011;2798;42.716;23.256;2024-01-15T06:49:54;54.60;;;31.10;;
5549;SDS011;2798;42.716;23.256;2024-01-15T06:52:20;51.07;;;29.40;;
5549;SDS011;2798;42.716;23.256;2024-01-15T06:54:45;51.50;;;30.03;;
5549;SDS011;2798;42.716;23.256;2024-01-15T06:57:11;48.43;;;29.00;;
5549;SDS011;2798;42.716;23.256;2024-01-15T06:59:36;48.80;;;29.37;;
5549;SDS011;2798;42.716;23.256;2024-01-15T07:02:01;52.10;;;32.27;;
5549;SDS011;2798;42.716;23.256;2024-01-15T07:04:27;53.80;;;30.70;;
5549;SDS011;2798;42.716;23.256;2024-01-15T07:06:53;50.70;;;30.53;;
5549;SDS011;2798;42.716;23.256;2024-01-15T07:09:18;55.57;;;32.17;;
5549;SDS011;2798;42.716;23.256;2024-01-15T07:11:45;51.23;;;30.33;;
5549;SDS011;2798;42.716;23.256;2024-01-15T07:14:13;51.03;;;28.40;;
5549;SDS011;2798;42.716;23.256;2024-01-15T07:16:39;52.80;;;30.67;;
5549;SDS011;2798;42.716;23.256;2024-01-15T07:19:05;52.90;;;30.63;;
5549;SDS011;2798;42.716;23.256;2024-01-15T07:21:30;45.83;;;28.73;;
5549;SDS011;2798;42.716;23.256;2024-01-15T07:23:56;46.23;;;27.90;;
5549;SDS011;2798;42.716;23.256;2024-01-15T07:26:22;44.27;;;27.90;;
5549;SDS011;2798;42.716;23.256;2024-01-15T07:28:47;42.37;;;26.80;;
5549;SDS011;2798;42.716;23.256;2024-01-15T07:31:14;47.17;;;26.73;;
5549;SDS011;2798;42.716;23.256;2024-01-15T07:33:40;50.50;;;28.73;;
5549;SDS011;2798;42.716;23.256;2024-01-15T07:36:06;46.77;;;28.37;;
5549;SDS011;2798;42.716;23.256;2024-01-15T07:38:32;48.87;;;28.47;;
5549;SDS011;2798;42.716;23.256;2024-01-15T07:40:58;47.93;;;27.27;;
5549;SDS011;2798;42.716;23.256;2024-01-15T07:43:23;47.83;;;25.30;;
5549;SDS011;2798;42.716;23.256;2024-01-15T07:45:49;48.70;;;26.97;;
5549;SDS011;2798;42.716;23.256;2024-01-15T07:48:14;45.93;;;26.97;;
5549;SDS011;2798;42.716;23.256;2024-01-15T07:50:40;48.30;;;28.00;;
5549;SDS011;2798;42.716;23.256;2024-01-15T07:53:05;51.27;;;27.50;;
5549;SDS011;2798;42.716;23.256;2024-01-15T07:55:31;42.83;;;26.13;;
5549;SDS011;2798;42.716;23.256;2024-01-15T07:57:57;55.47;;;32.50;;
5549;SDS011;2798;42.716;23.256;2024-01-15T08:00:24;53.80;;;30.60;;
5549;SDS011;2798;42.716;23.256;2024-01-15T08:02:50;50.83;;;31.07;;
5549;SDS011;2798;42.716;23.256;2024-01-15T08:05:16;56.37;;;33.70;;
5549;SDS011;2798;42.716;23.256;2024-01-15T08:07:42;51.53;;;31.57;;
5549;SDS011;2798;42.716;23.256;2024-01-15T08:10:07;66.20;;;36.83;;
5549;SDS011;2798;42.716;23.256;2024-01-15T08:12:33;61.77;;;37.30;;
5549;SDS011;2798;42.716;23.256;2024-01-15T08:14:58;67.00;;;36.80;;
5549;SDS011;2798;42.716;23.256;2024-01-15T08:17:24;65.97;;;37.80;;
5549;SDS011;2798;42.716;23.256;2024-01-15T08:19:53;65.30;;;35.13;;
5549;SDS011;2798;42.716;23.256;2024-01-15T08:22:19;63.60;;;38.33;;
5549;SDS011;2798;42.716;23.256;2024-01-15T08:24:45;71.57;;;39.47;;
5549;SDS011;2798;42.716;23.256;2024-01-15T08:27:11;67.23;;;38.43;;
5549;SDS011;2798;42.716;23.256;2024-01-15T08:29:36;80.60;;;42.90;;
5549;SDS011;2798;42.716;23.256;2024-01-15T08:32:02;66.90;;;40.23;;
5549;SDS011;2798;42.716;23.256;2024-01-15T08:34:27;72.77;;;40.60;;
5549;SDS011;2798;42.716;23.256;2024-01-15T08:36:53;73.50;;;39.57;;
5549;SDS011;2798;42.716;23.256;2024-01-15T08:39:19;80.50;;;42.90;;
5549;SDS011;2798;42.716;23.256;2024-01-15T08:41:44;77.37;;;40.17;;
5549;SDS011;2798;42.716;23.256;2024-01-15T08:44:11;68.97;;;40.37;;
5549;SDS011;2798;42.716;23.256;2024-01-15T08:46:37;71.80;;;38.60;;
5549;SDS011;2798;42.716;23.256;2024-01-15T08:49:03;65.50;;;38.37;;
5549;SDS011;2798;42.716;23.256;2024-01-15T08:51:28;65.97;;;37.80;;
5549;SDS011;2798;42.716;23.256;2024-01-15T08:53:55;78.10;;;38.10;;
5549;SDS011;2798;42.716;23.256;2024-01-15T08:56:21;58.47;;;35.57;;
5549;SDS011;2798;42.716;23.256;2024-01-15T08:58:47;60.60;;;36.63;;
5549;SDS011;2798;42.716;23.256;2024-01-15T09:01:13;61.77;;;36.03;;
5549;SDS011;2798;42.716;23.256;2024-01-15T09:03:39;61.97;;;35.87;;
5549;SDS011;2798;42.716;23.256;2024-01-15T09:06:07;63.73;;;36.63;;
5549;SDS011;2798;42.716;23.256;2024-01-15T09:08:32;62.03;;;35.13;;
5549;SDS011;2798;42.716;23.256;2024-01-15T09:10:58;63.40;;;35.37;;
5549;SDS011;2798;42.716;23.256;2024-01-15T09:13:24;64.60;;;35.90;;
5549;SDS011;2798;42.716;23.256;2024-01-15T09:15:49;60.20;;;35.97;;
5549;SDS011;2798;42.716;23.256;2024-01-15T09:18:15;50.70;;;32.50;;
5549;SDS011;2798;42.716;23.256;2024-01-15T09:20:40;60.63;;;35.50;;
5549;SDS011;2798;42.716;23.256;2024-01-15T09:23:06;59.93;;;33.93;;
5549;SDS011;2798;42.716;23.256;2024-01-15T09:25:31;64.90;;;33.53;;
5549;SDS011;2798;42.716;23.256;2024-01-15T09:27:56;57.80;;;34.67;;
5549;SDS011;2798;42.716;23.256;2024-01-15T09:30:23;60.47;;;34.30;;
5549;SDS011;2798;42.716;23.256;2024-01-15T09:32:48;59.37;;;35.40;;
5549;SDS011;2798;42.716;23.256;2024-01-15T09:35:14;68.70;;;36.87;;
5549;SDS011;2798;42.716;23.256;2024-01-15T09:37:39;68.30;;;37.47;;
5549;SDS011;2798;42.716;23.256;2024-01-15T09:40:05;70.60;;;38.43;;
5549;SDS011;2798;42.716;23.256;2024-01-15T09:42:33;80.07;;;43.23;;
5549;SDS011;2798;42.716;23.256;2024-01-15T09:45:00;68.73;;;41.70;;
5549;SDS011;2798;42.716;23.256;2024-01-15T09:47:28;75.03;;;39.70;;
5549;SDS011;2798;42.716;23.256;2024-01-15T09:49:54;68.53;;;39.63;;
5549;SDS011;2798;42.716;23.256;2024-01-15T09:52:23;73.10;;;39.50;;
5549;SDS011;2798;42.716;23.256;2024-01-15T09:54:49;68.80;;;38.40;;
5549;SDS011;2798;42.716;23.256;2024-01-15T09:57:15;66.10;;;38.60;;
5549;SDS011;2798;42.716;23.256;2024-01-15T09:59:42;67.60;;;38.67;;
5549;SDS011;2798;42.716;23.256;2024-01-15T10:02:08;60.73;;;36.40;;
5549;SDS011;2798;42.716;23.256;2024-01-15T10:04:39;66.23;;;37.97;;
5549;SDS011;2798;42.716;23.256;2024-01-15T10:07:05;61.70;;;36.10;;
5549;SDS011;2798;42.716;23.256;2024-01-15T10:09:33;62.50;;;36.03;;
5549;SDS011;2798;42.716;23.256;2024-01-15T10:11:58;71.53;;;36.60;;
5549;SDS011;2798;42.716;23.256;2024-01-15T10:14:24;60.63;;;35.07;;
5549;SDS011;2798;42.716;23.256;2024-01-15T10:16:50;57.60;;;32.90;;
5549;SDS011;2798;42.716;23.256;2024-01-15T10:19:15;62.30;;;33.40;;
5549;SDS011;2798;42.716;23.256;2024-01-15T10:21:41;50.33;;;31.63;;
5549;SDS011;2798;42.716;23.256;2024-01-15T10:24:06;54.37;;;31.57;;
5549;SDS011;2798;42.716;23.256;2024-01-15T10:26:32;52.70;;;31.20;;
5549;SDS011;2798;42.716;23.256;2024-01-15T10:29:01;54.47;;;32.20;;
5549;SDS011;2798;42.716;23.256;2024-01-15T10:31:26;48.03;;;29.20;;
5549;SDS011;2798;42.716;23.256;2024-01-15T10:33:52;48.10;;;28.50;;
5549;SDS011;2798;42.716;23.256;2024-01-15T10:36:18;48.23;;;28.67;;
5549;SDS011;2798;42.716;23.256;2024-01-15T10:38:44;49.50;;;29.30;;
5549;SDS011;2798;42.716;23.256;2024-01-15T10:41:11;46.70;;;28.63;;
5549;SDS011;2798;42.716;23.256;2024-01-15T10:43:37;44.77;;;27.40;;
5549;SDS011;2798;42.716;23.256;2024-01-15T10:46:02;38.23;;;24.10;;
5549;SDS011;2798;42.716;23.256;2024-01-15T10:48:29;38.10;;;23.87;;
5549;SDS011;2798;42.716;23.256;2024-01-15T10:50:56;41.60;;;24.50;;
5549;SDS011;2798;42.716;23.256;2024-01-15T10:53:23;37.63;;;23.13;;
5549;SDS011;2798;42.716;23.256;2024-01-15T10:55:53;44.43;;;24.37;;
5549;SDS011;2798;42.716;23.256;2024-01-15T10:58:18;36.43;;;22.37;;
5549;SDS011;2798;42.716;23.256;2024-01-15T11:00:45;39.57;;;23.20;;
5549;SDS011;2798;42.716;23.256;2024-01-15T11:03:11;38.87;;;22.80;;
5549;SDS011;2798;42.716;23.256;2024-01-15T11:05:38;34.97;;;20.73;;
5549;SDS011;2798;42.716;23.256;2024-01-15T11:08:09;34.80;;;20.73;;
5549;SDS011;2798;42.716;23.256;2024-01-15T11:10:46;32.40;;;20.20;;
5549;SDS011;2798;42.716;23.256;2024-01-15T11:16:02;35.60;;;19.00;;
5549;SDS011;2798;42.716;23.256;2024-01-15T11:18:40;33.40;;;19.20;;
5549;SDS011;2798;42.716;23.256;2024-01-15T11:26:31;28.27;;;17.80;;
5549;SDS011;2798;42.716;23.256;2024-01-15T11:28:59;28.60;;;18.00;;
5549;SDS011;2798;42.716;23.256;2024-01-15T11:31:27;31.27;;;17.20;;
5549;SDS011;2798;42.716;23.256;2024-01-15T11:34:15;24.43;;;16.60;;
5549;SDS011;2798;42.716;23.256;2024-01-15T11:41:59;27.53;;;16.97;;
5549;SDS011;2798;42.716;23.256;2024-01-15T11:44:26;28.13;;;15.87;;
5549;SDS011;2798;42.716;23.256;2024-01-15T11:50:02;23.87;;;15.23;;
5549;SDS011;2798;42.716;23.256;2024-01-15T11:52:32;25.10;;;17.27;;
5549;SDS011;2798;42.716;23.256;2024-01-15T11:55:06;22.47;;;14.50;;
5549;SDS011;2798;42.716;23.256;2024-01-15T12:00:05;20.87;;;14.17;;
5549;SDS011;2798;42.716;23.256;2024-01-15T12:02:32;21.13;;;13.53;;
5549;SDS011;2798;42.716;23.256;2024-01-15T12:04:58;28.07;;;14.07;;
5549;SDS011;2798;42.716;23.256;2024-01-15T12:07:23;19.27;;;13.40;;
5549;SDS011;2798;42.716;23.256;2024-01-15T12:09:49;17.63;;;12.33;;
5549;SDS011;2798;42.716;23.256;2024-01-15T12:12:16;20.40;;;13.30;;
5549;SDS011;2798;42.716;23.256;2024-01-15T12:14:50;24.17;;;14.88;;
5549;SDS011;2798;42.716;23.256;2024-01-15T12:17:16;24.57;;;14.23;;
5549;SDS011;2798;42.716;23.256;2024-01-15T12:19:42;23.97;;;13.40;;
5549;SDS011;2798;42.716;23.256;2024-01-15T12:22:08;19.20;;;12.40;;
5549;SDS011;2798;42.716;23.256;2024-01-15T12:24:34;21.67;;;12.77;;
5549;SDS011;2798;42.716;23.256;2024-01-15T12:27:00;18.97;;;12.30;;
5549;SDS011;2798;42.716;23.256;2024-01-15T12:29:26;26.40;;;13.30;;
5549;SDS011;2798;42.716;23.256;2024-01-15T12:31:53;28.63;;;14.70;;
5549;SDS011;2798;42.716;23.256;2024-01-15T12:34:18;19.47;;;12.90;;
5549;SDS011;2798;42.716;23.256;2024-01-15T12:36:47;24.10;;;13.70;;
5549;SDS011;2798;42.716;23.256;2024-01-15T12:39:13;19.10;;;12.27;;
5549;SDS011;2798;42.716;23.256;2024-01-15T12:41:40;21.60;;;12.57;;
5549;SDS011;2798;42.716;23.256;2024-01-15T12:44:06;20.80;;;12.77;;
5549;SDS011;2798;42.716;23.256;2024-01-15T12:46:32;23.73;;;14.40;;
5549;SDS011;2798;42.716;23.256;2024-01-15T12:48:57;19.70;;;12.70;;
5549;SDS011;2798;42.716;23.256;2024-01-15T12:51:26;21.20;;;12.67;;
5549;SDS011;2798;42.716;23.256;2024-01-15T12:53:52;22.37;;;13.73;;
5549;SDS011;2798;42.716;23.256;2024-01-15T12:56:18;19.47;;;13.00;;
5549;SDS011;2798;42.716;23.256;2024-01-15T12:58:43;19.77;;;12.83;;
5549;SDS011;2798;42.716;23.256;2024-01-15T13:01:09;20.27;;;12.20;;
5549;SDS011;2798;42.716;23.256;2024-01-15T13:03:35;19.70;;;12.00;;
5549;SDS011;2798;42.716;23.256;2024-01-15T13:06:00;24.33;;;13.27;;
5549;SDS011;2798;42.716;23.256;2024-01-15T13:08:26;23.13;;;11.87;;
5549;SDS011;2798;42.716;23.256;2024-01-15T13:10:53;19.40;;;11.93;;
5549;SDS011;2798;42.716;23.256;2024-01-15T13:13:21;20.37;;;13.00;;
5549;SDS011;2798;42.716;23.256;2024-01-15T13:15:47;16.33;;;10.17;;
5549;SDS011;2798;42.716;23.256;2024-01-15T13:18:12;18.33;;;11.83;;
5549;SDS011;2798;42.716;23.256;2024-01-15T13:20:38;16.73;;;10.73;;
5549;SDS011;2798;42.716;23.256;2024-01-15T13:23:03;19.77;;;10.80;;
5549;SDS011;2798;42.716;23.256;2024-01-15T13:25:29;18.67;;;13.02;;
5549;SDS011;2798;42.716;23.256;2024-01-15T13:27:54;23.23;;;13.03;;
5549;SDS011;2798;42.716;23.256;2024-01-15T13:30:20;17.60;;;11.20;;
5549;SDS011;2798;42.716;23.256;2024-01-15T13:32:46;18.13;;;10.90;;
5549;SDS011;2798;42.716;23.256;2024-01-15T13:35:12;19.63;;;12.10;;
5549;SDS011;2798;42.716;23.256;2024-01-15T13:37:38;17.30;;;11.37;;
5549;SDS011;2798;42.716;23.256;2024-01-15T13:40:06;21.70;;;10.80;;
5549;SDS011;2798;42.716;23.256;2024-01-15T13:42:35;24.00;;;10.90;;
5549;SDS011;2798;42.716;23.256;2024-01-15T13:45:04;19.07;;;12.13;;
5549;SDS011;2798;42.716;23.256;2024-01-15T13:47:31;16.80;;;10.80;;
5549;SDS011;2798;42.716;23.256;2024-01-15T13:49:57;17.40;;;11.57;;
5549;SDS011;2798;42.716;23.256;2024-01-15T13:52:23;19.20;;;12.07;;
5549;SDS011;2798;42.716;23.256;2024-01-15T13:54:48;14.70;;;10.80;;
5549;SDS011;2798;42.716;23.256;2024-01-15T13:57:14;21.50;;;11.93;;
5549;SDS011;2798;42.716;23.256;2024-01-15T13:59:40;20.90;;;12.93;;
5549;SDS011;2798;42.716;23.256;2024-01-15T14:02:05;18.17;;;12.57;;
5549;SDS011;2798;42.716;23.256;2024-01-15T14:04:31;19.43;;;13.20;;
5549;SDS011;2798;42.716;23.256;2024-01-15T14:06:56;19.43;;;11.80;;
5549;SDS011;2798;42.716;23.256;2024-01-15T14:09:22;20.43;;;11.40;;
5549;SDS011;2798;42.716;23.256;2024-01-15T14:11:47;18.80;;;12.47;;
5549;SDS011;2798;42.716;23.256;2024-01-15T14:14:14;21.30;;;12.40;;
5549;SDS011;2798;42.716;23.256;2024-01-15T14:16:39;20.07;;;12.87;;
5549;SDS011;2798;42.716;23.256;2024-01-15T14:19:05;19.93;;;11.83;;
5549;SDS011;2798;42.716;23.256;2024-01-15T14:21:34;16.20;;;10.70;;
5549;SDS011;2798;42.716;23.256;2024-01-15T14:24:00;18.53;;;11.40;;
5549;SDS011;2798;42.716;23.256;2024-01-15T14:26:26;17.23;;;11.10;;
5549;SDS011;2798;42.716;23.256;2024-01-15T14:28:51;21.63;;;12.20;;
5549;SDS011;2798;42.716;23.256;2024-01-15T14:31:17;16.83;;;11.00;;
5549;SDS011;2798;42.716;23.256;2024-01-15T14:33:43;17.90;;;11.43;;
5549;SDS011;2798;42.716;23.256;2024-01-15T14:36:08;15.50;;;10.40;;
5549;SDS011;2798;42.716;23.256;2024-01-15T14:38:33;18.17;;;11.77;;
5549;SDS011;2798;42.716;23.256;2024-01-15T14:40:59;18.52;;;12.75;;
5549;SDS011;2798;42.716;23.256;2024-01-15T14:43:26;18.20;;;12.00;;
5549;SDS011;2798;42.716;23.256;2024-01-15T14:45:51;18.07;;;11.60;;
5549;SDS011;2798;42.716;23.256;2024-01-15T14:48:17;23.83;;;12.43;;